AAL1489 KDFW-KMIA
Flight info
| Callsign | AAL1489 |
|---|---|
| Flight time | 2h 0m |
| Altitude | 37000 |
| Route | MRSSH3 ZALEA HRV Q105 BLVNS Y290 DOWRY FROGZ5 |
| Aircraft | B77W/H-SDE1E2E3FGHIJ2J3J4J5M1RWXYZ/LB1D1 |
Departure
| Time | 2026-05-04 23:49 |
|---|---|
| Airport | Dallas Fort Worth International Airport (KDFW) |
Arrival
| Time | 2026-05-05 01:49 |
|---|---|
| Airport | Miami International Airport (KMIA) |
| Time | Latitude | Longitude | Altitude | Speed | Heading |
|---|---|---|---|---|---|
| 2026-05-04 23:02 | 32.89587 | -97.04583 | 603 ft | 0 kts | 90° |
| 2026-05-04 23:29 | 32.89587 | -97.04587 | 603 ft | 2 kts | 89° |
| 2026-05-04 23:30 | 32.89586 | -97.04605 | 603 ft | 2 kts | 87° |
| 2026-05-04 23:30 | 32.89586 | -97.04623 | 604 ft | 2 kts | 89° |
| 2026-05-04 23:30 | 32.89586 | -97.04640 | 604 ft | 2 kts | 75° |
| 2026-05-04 23:30 | 32.89579 | -97.04656 | 604 ft | 2 kts | 47° |
| 2026-05-04 23:31 | 32.89568 | -97.04666 | 604 ft | 2 kts | 23° |
| 2026-05-04 23:31 | 32.89553 | -97.04670 | 604 ft | 2 kts | 358° |
| 2026-05-04 23:31 | 32.89539 | -97.04669 | 603 ft | 2 kts | 356° |
| 2026-05-04 23:31 | 32.89526 | -97.04669 | 603 ft | 0 kts | 359° |
| 2026-05-04 23:32 | 32.89524 | -97.04669 | 603 ft | 0 kts | 359° |
| 2026-05-04 23:37 | 32.89528 | -97.04669 | 603 ft | 1 kts | 359° |
| 2026-05-04 23:37 | 32.89550 | -97.04669 | 604 ft | 4 kts | 355° |
| 2026-05-04 23:37 | 32.89588 | -97.04687 | 605 ft | 7 kts | 328° |
| 2026-05-04 23:37 | 32.89638 | -97.04727 | 607 ft | 9 kts | 326° |
| 2026-05-04 23:38 | 32.89707 | -97.04762 | 608 ft | 12 kts | 350° |
| 2026-05-04 23:38 | 32.89799 | -97.04766 | 610 ft | 13 kts | 0° |
| 2026-05-04 23:38 | 32.89895 | -97.04765 | 611 ft | 14 kts | 0° |
| 2026-05-04 23:38 | 32.89995 | -97.04765 | 612 ft | 14 kts | 0° |
| 2026-05-04 23:39 | 32.90089 | -97.04765 | 613 ft | 13 kts | 0° |
| 2026-05-04 23:39 | 32.90179 | -97.04765 | 614 ft | 12 kts | 0° |
| 2026-05-04 23:39 | 32.90265 | -97.04764 | 614 ft | 12 kts | 1° |
| 2026-05-04 23:39 | 32.90352 | -97.04763 | 613 ft | 12 kts | 1° |
| 2026-05-04 23:40 | 32.90441 | -97.04762 | 612 ft | 13 kts | 0° |
| 2026-05-04 23:40 | 32.90533 | -97.04762 | 611 ft | 13 kts | 0° |
| 2026-05-04 23:40 | 32.90626 | -97.04761 | 611 ft | 13 kts | 0° |
| 2026-05-04 23:40 | 32.90721 | -97.04761 | 610 ft | 13 kts | 0° |
| 2026-05-04 23:41 | 32.90820 | -97.04761 | 608 ft | 14 kts | 0° |
| 2026-05-04 23:41 | 32.90890 | -97.04761 | 607 ft | 9 kts | 0° |
| 2026-05-04 23:41 | 32.90960 | -97.04760 | 606 ft | 10 kts | 0° |
| 2026-05-04 23:41 | 32.91005 | -97.04738 | 605 ft | 7 kts | 56° |
| 2026-05-04 23:42 | 32.91012 | -97.04671 | 604 ft | 9 kts | 90° |
| 2026-05-04 23:42 | 32.91011 | -97.04587 | 603 ft | 10 kts | 91° |
| 2026-05-04 23:42 | 32.91010 | -97.04493 | 602 ft | 12 kts | 90° |
| 2026-05-04 23:42 | 32.91010 | -97.04388 | 601 ft | 13 kts | 90° |
| 2026-05-04 23:43 | 32.91009 | -97.04277 | 601 ft | 13 kts | 90° |
| 2026-05-04 23:43 | 32.91009 | -97.04163 | 600 ft | 13 kts | 90° |
| 2026-05-04 23:43 | 32.91009 | -97.04045 | 599 ft | 14 kts | 90° |
| 2026-05-04 23:43 | 32.91008 | -97.03920 | 598 ft | 15 kts | 90° |
| 2026-05-04 23:44 | 32.91008 | -97.03790 | 597 ft | 15 kts | 89° |
| 2026-05-04 23:44 | 32.91008 | -97.03663 | 595 ft | 14 kts | 90° |
| 2026-05-04 23:44 | 32.91006 | -97.03542 | 594 ft | 14 kts | 90° |
| 2026-05-04 23:44 | 32.91005 | -97.03425 | 592 ft | 13 kts | 91° |
| 2026-05-04 23:45 | 32.91007 | -97.03322 | 589 ft | 8 kts | 85° |
| 2026-05-04 23:45 | 32.91045 | -97.03278 | 588 ft | 9 kts | 8° |
| 2026-05-04 23:45 | 32.91115 | -97.03275 | 587 ft | 10 kts | 0° |
| 2026-05-04 23:45 | 32.91193 | -97.03275 | 586 ft | 11 kts | 0° |
| 2026-05-04 23:46 | 32.91279 | -97.03274 | 585 ft | 12 kts | 0° |
| 2026-05-04 23:46 | 32.91371 | -97.03274 | 583 ft | 13 kts | 0° |
| 2026-05-04 23:46 | 32.91468 | -97.03274 | 582 ft | 14 kts | 0° |
| 2026-05-04 23:46 | 32.91544 | -97.03267 | 581 ft | 8 kts | 37° |
| 2026-05-04 23:47 | 32.91559 | -97.03191 | 580 ft | 10 kts | 90° |
| 2026-05-04 23:47 | 32.91559 | -97.03143 | 579 ft | 4 kts | 90° |
| 2026-05-04 23:47 | 32.91559 | -97.03102 | 578 ft | 5 kts | 91° |
| 2026-05-04 23:47 | 32.91558 | -97.03049 | 577 ft | 6 kts | 90° |
| 2026-05-04 23:48 | 32.91546 | -97.03002 | 577 ft | 5 kts | 145° |
| 2026-05-04 23:48 | 32.91509 | -97.02991 | 577 ft | 5 kts | 176° |
| 2026-05-04 23:48 | 32.91478 | -97.02990 | 577 ft | 0 kts | 180° |
| 2026-05-04 23:49 | 32.91452 | -97.02990 | 578 ft | 17 kts | 180° |
| 2026-05-04 23:49 | 32.91065 | -97.02992 | 581 ft | 95 kts | 180° |
| 2026-05-04 23:49 | 32.90150 | -97.02995 | 600 ft | 163 kts | 180° |
| 2026-05-04 23:49 | 32.88930 | -97.02974 | 1222 ft | 179 kts | 179° |
| 2026-05-04 23:50 | 32.87799 | -97.02940 | 2462 ft | 160 kts | 181° |
| 2026-05-04 23:50 | 32.86637 | -97.02929 | 2988 ft | 177 kts | 182° |
| 2026-05-04 23:50 | 32.85343 | -97.02935 | 3500 ft | 195 kts | 183° |
| 2026-05-04 23:50 | 32.83923 | -97.02944 | 3990 ft | 214 kts | 183° |
| 2026-05-04 23:51 | 32.82382 | -97.02954 | 4572 ft | 231 kts | 184° |
| 2026-05-04 23:51 | 32.80710 | -97.02967 | 5150 ft | 250 kts | 184° |
| 2026-05-04 23:51 | 32.78922 | -97.02978 | 5905 ft | 262 kts | 185° |
| 2026-05-04 23:51 | 32.77097 | -97.02988 | 6802 ft | 267 kts | 185° |
| 2026-05-04 23:52 | 32.75225 | -97.02998 | 7625 ft | 274 kts | 186° |
| 2026-05-04 23:52 | 32.73298 | -97.02856 | 8498 ft | 285 kts | 172° |
| 2026-05-04 23:52 | 32.71456 | -97.01833 | 9270 ft | 305 kts | 146° |
| 2026-05-04 23:52 | 32.70073 | -96.99877 | 10045 ft | 320 kts | 119° |
| 2026-05-04 23:53 | 32.69357 | -96.97298 | 10534 ft | 342 kts | 103° |
| 2026-05-04 23:53 | 32.68895 | -96.94460 | 11064 ft | 359 kts | 96° |
| 2026-05-04 23:53 | 32.68813 | -96.91443 | 11591 ft | 375 kts | 88° |
| 2026-05-04 23:53 | 32.68876 | -96.88288 | 12157 ft | 392 kts | 87° |
| 2026-05-04 23:54 | 32.68942 | -96.85000 | 12751 ft | 407 kts | 87° |
| 2026-05-04 23:54 | 32.69003 | -96.81612 | 13500 ft | 417 kts | 87° |
| 2026-05-04 23:54 | 32.69062 | -96.78152 | 14322 ft | 425 kts | 86° |
| 2026-05-04 23:54 | 32.69120 | -96.74627 | 15218 ft | 432 kts | 86° |
| 2026-05-04 23:55 | 32.69175 | -96.71058 | 16094 ft | 440 kts | 86° |
| 2026-05-04 23:55 | 32.69231 | -96.67405 | 16983 ft | 446 kts | 86° |
| 2026-05-04 23:55 | 32.69338 | -96.59979 | 18612 ft | 460 kts | 86° |
| 2026-05-04 23:56 | 32.69392 | -96.56147 | 19294 ft | 470 kts | 85° |
| 2026-05-04 23:56 | 32.69445 | -96.52246 | 20003 ft | 478 kts | 85° |
| 2026-05-04 23:56 | 32.69497 | -96.48289 | 20830 ft | 483 kts | 85° |
| 2026-05-04 23:56 | 32.69549 | -96.44282 | 21480 ft | 492 kts | 85° |
| 2026-05-04 23:57 | 32.69600 | -96.40189 | 22089 ft | 501 kts | 85° |
| 2026-05-04 23:57 | 32.69651 | -96.36041 | 22741 ft | 508 kts | 85° |
| 2026-05-04 23:57 | 32.69586 | -96.31812 | 23364 ft | 517 kts | 91° |
| 2026-05-04 23:57 | 32.69324 | -96.27546 | 23994 ft | 524 kts | 92° |
| 2026-05-04 23:58 | 32.69034 | -96.23213 | 24599 ft | 530 kts | 91° |
| 2026-05-04 23:58 | 32.68740 | -96.18831 | 25167 ft | 537 kts | 91° |
| 2026-05-04 23:58 | 32.68442 | -96.14400 | 25782 ft | 543 kts | 91° |
| 2026-05-04 23:58 | 32.68140 | -96.09927 | 26422 ft | 548 kts | 91° |
| 2026-05-04 23:59 | 32.67833 | -96.05392 | 26998 ft | 555 kts | 91° |
| 2026-05-04 23:59 | 32.67523 | -96.00823 | 27567 ft | 562 kts | 91° |
| 2026-05-04 23:59 | 32.67206 | -95.96184 | 28172 ft | 567 kts | 90° |
| 2026-05-04 23:59 | 32.66887 | -95.91520 | 28778 ft | 573 kts | 90° |
| 2026-05-05 00:00 | 32.66561 | -95.86797 | 29425 ft | 577 kts | 90° |
| 2026-05-05 00:00 | 32.66342 | -95.83640 | 29954 ft | 578 kts | 90° |
| 2026-05-05 00:00 | 32.65902 | -95.77336 | 31038 ft | 578 kts | 90° |
| 2026-05-05 00:00 | 32.65570 | -95.72599 | 31778 ft | 578 kts | 90° |
| 2026-05-05 00:01 | 32.65236 | -95.67852 | 32429 ft | 579 kts | 89° |
| 2026-05-05 00:01 | 32.64900 | -95.63111 | 33078 ft | 580 kts | 89° |
| 2026-05-05 00:01 | 32.64562 | -95.58358 | 33799 ft | 580 kts | 89° |
| 2026-05-05 00:01 | 32.64221 | -95.53583 | 34555 ft | 579 kts | 89° |
| 2026-05-05 00:02 | 32.63876 | -95.48807 | 35360 ft | 576 kts | 89° |
| 2026-05-05 00:02 | 32.63531 | -95.44039 | 36245 ft | 572 kts | 89° |
| 2026-05-05 00:02 | 32.63189 | -95.39337 | 36834 ft | 572 kts | 89° |
| 2026-05-05 00:03 | 32.62499 | -95.29898 | 36830 ft | 571 kts | 90° |
| 2026-05-05 00:03 | 32.61804 | -95.20493 | 36832 ft | 573 kts | 90° |
| 2026-05-05 00:04 | 32.61104 | -95.11117 | 36831 ft | 571 kts | 90° |
| 2026-05-05 00:04 | 32.60398 | -95.01756 | 36836 ft | 572 kts | 90° |
| 2026-05-05 00:05 | 32.59682 | -94.92367 | 36845 ft | 571 kts | 90° |
| 2026-05-05 00:05 | 32.58962 | -94.83010 | 36854 ft | 572 kts | 90° |
| 2026-05-05 00:06 | 32.57446 | -94.73746 | 36861 ft | 579 kts | 104° |
| 2026-05-05 00:06 | 32.54923 | -94.64637 | 36861 ft | 581 kts | 106° |
| 2026-05-05 00:07 | 32.52366 | -94.55580 | 36868 ft | 581 kts | 106° |
| 2026-05-05 00:07 | 32.49801 | -94.46523 | 36879 ft | 580 kts | 106° |
| 2026-05-05 00:08 | 32.47226 | -94.37463 | 36885 ft | 582 kts | 106° |
| 2026-05-05 00:08 | 32.44640 | -94.28391 | 36859 ft | 580 kts | 106° |
| 2026-05-05 00:09 | 32.42058 | -94.19363 | 36865 ft | 581 kts | 107° |
| 2026-05-05 00:09 | 32.39463 | -94.10320 | 36860 ft | 582 kts | 106° |
| 2026-05-05 00:10 | 32.36869 | -94.01304 | 36868 ft | 581 kts | 106° |
| 2026-05-05 00:10 | 32.34261 | -93.92268 | 36876 ft | 583 kts | 106° |
| 2026-05-05 00:11 | 32.31633 | -93.83190 | 36877 ft | 581 kts | 106° |
| 2026-05-05 00:11 | 32.29013 | -93.74171 | 36883 ft | 581 kts | 106° |
| 2026-05-05 00:12 | 32.26388 | -93.65159 | 36878 ft | 579 kts | 106° |
| 2026-05-05 00:12 | 32.23762 | -93.56169 | 36875 ft | 581 kts | 106° |
| 2026-05-05 00:13 | 32.20618 | -93.47402 | 36870 ft | 581 kts | 120° |
| 2026-05-05 00:13 | 32.15955 | -93.39561 | 36879 ft | 582 kts | 128° |
| 2026-05-05 00:14 | 32.11111 | -93.32096 | 36870 ft | 581 kts | 129° |
| 2026-05-05 00:14 | 32.06232 | -93.24613 | 36885 ft | 581 kts | 129° |
| 2026-05-05 00:15 | 32.01280 | -93.17039 | 36887 ft | 581 kts | 129° |
| 2026-05-05 00:15 | 31.96326 | -93.09480 | 36901 ft | 582 kts | 129° |
| 2026-05-05 00:16 | 31.91364 | -93.01927 | 36896 ft | 580 kts | 129° |
| 2026-05-05 00:16 | 31.86493 | -92.94528 | 36894 ft | 579 kts | 129° |
| 2026-05-05 00:17 | 31.81574 | -92.87072 | 36895 ft | 582 kts | 129° |
| 2026-05-05 00:17 | 31.76584 | -92.79523 | 36898 ft | 581 kts | 129° |
| 2026-05-05 00:18 | 31.71611 | -92.72015 | 36901 ft | 583 kts | 129° |
| 2026-05-05 00:18 | 31.66625 | -92.64504 | 36907 ft | 582 kts | 129° |
| 2026-05-05 00:19 | 31.61657 | -92.57032 | 36915 ft | 581 kts | 129° |
| 2026-05-05 00:19 | 31.56638 | -92.49499 | 36921 ft | 583 kts | 129° |
| 2026-05-05 00:20 | 31.51638 | -92.42009 | 36935 ft | 582 kts | 129° |
| 2026-05-05 00:20 | 31.46622 | -92.34510 | 36945 ft | 583 kts | 129° |
| 2026-05-05 00:21 | 31.41729 | -92.27209 | 36925 ft | 581 kts | 129° |
| 2026-05-05 00:21 | 31.36721 | -92.19751 | 36928 ft | 582 kts | 129° |
| 2026-05-05 00:22 | 31.31694 | -92.12279 | 36938 ft | 582 kts | 129° |
| 2026-05-05 00:22 | 31.26696 | -92.04863 | 36944 ft | 582 kts | 129° |
| 2026-05-05 00:23 | 31.21664 | -91.97412 | 36946 ft | 580 kts | 129° |
| 2026-05-05 00:23 | 31.16643 | -91.89992 | 36960 ft | 581 kts | 129° |
| 2026-05-05 00:24 | 31.11607 | -91.82563 | 36959 ft | 580 kts | 129° |
| 2026-05-05 00:24 | 31.06607 | -91.75201 | 36962 ft | 578 kts | 129° |
| 2026-05-05 00:25 | 31.01610 | -91.67858 | 36966 ft | 577 kts | 129° |
| 2026-05-05 00:25 | 30.96586 | -91.60489 | 36977 ft | 578 kts | 129° |
| 2026-05-05 00:26 | 30.91555 | -91.53124 | 36979 ft | 577 kts | 129° |
| 2026-05-05 00:26 | 30.86605 | -91.45891 | 36969 ft | 578 kts | 129° |
| 2026-05-05 00:27 | 30.81560 | -91.38532 | 36978 ft | 577 kts | 129° |
| 2026-05-05 00:27 | 30.76641 | -91.31371 | 36958 ft | 576 kts | 129° |
| 2026-05-05 00:28 | 30.71678 | -91.24158 | 36964 ft | 576 kts | 130° |
| 2026-05-05 00:28 | 30.66609 | -91.16805 | 36969 ft | 577 kts | 130° |
| 2026-05-05 00:29 | 30.61583 | -91.09529 | 36977 ft | 577 kts | 130° |
| 2026-05-05 00:29 | 30.56539 | -91.02240 | 36978 ft | 577 kts | 129° |
| 2026-05-05 00:30 | 30.51509 | -90.94985 | 36985 ft | 575 kts | 129° |
| 2026-05-05 00:30 | 30.46740 | -90.88117 | 36987 ft | 575 kts | 130° |
| 2026-05-05 00:31 | 30.41693 | -90.80864 | 36986 ft | 575 kts | 129° |
| 2026-05-05 00:31 | 30.36654 | -90.73633 | 36991 ft | 574 kts | 129° |
| 2026-05-05 00:32 | 30.31607 | -90.66405 | 36992 ft | 574 kts | 130° |
| 2026-05-05 00:32 | 30.26565 | -90.59197 | 36999 ft | 575 kts | 129° |
| 2026-05-05 00:33 | 30.21531 | -90.52015 | 37009 ft | 574 kts | 129° |
| 2026-05-05 00:33 | 30.16504 | -90.44854 | 37016 ft | 574 kts | 130° |
| 2026-05-05 00:34 | 30.11438 | -90.37652 | 37017 ft | 573 kts | 129° |
| 2026-05-05 00:34 | 30.06559 | -90.30726 | 37001 ft | 571 kts | 130° |
| 2026-05-05 00:35 | 30.01452 | -90.23491 | 37006 ft | 572 kts | 129° |
| 2026-05-05 00:35 | 29.96409 | -90.16359 | 37008 ft | 572 kts | 129° |
| 2026-05-05 00:36 | 29.91352 | -90.09219 | 37012 ft | 571 kts | 130° |
| 2026-05-05 00:36 | 29.86281 | -90.02073 | 36995 ft | 571 kts | 129° |
| 2026-05-05 00:37 | 29.81176 | -89.95005 | 36996 ft | 571 kts | 130° |
| 2026-05-05 00:37 | 29.76036 | -89.88009 | 37001 ft | 569 kts | 131° |
| 2026-05-05 00:38 | 29.70892 | -89.81015 | 37005 ft | 570 kts | 130° |
| 2026-05-05 00:38 | 29.65769 | -89.74057 | 37003 ft | 568 kts | 130° |
| 2026-05-05 00:39 | 29.60659 | -89.67126 | 37007 ft | 569 kts | 130° |
| 2026-05-05 00:39 | 29.55543 | -89.60196 | 37009 ft | 569 kts | 131° |
| 2026-05-05 00:40 | 29.50412 | -89.53258 | 37014 ft | 569 kts | 131° |
| 2026-05-05 00:40 | 29.45286 | -89.46337 | 37013 ft | 569 kts | 131° |
| 2026-05-05 00:41 | 29.40163 | -89.39433 | 37016 ft | 569 kts | 130° |
| 2026-05-05 00:41 | 29.35081 | -89.32594 | 36998 ft | 569 kts | 131° |
| 2026-05-05 00:42 | 29.29981 | -89.25744 | 37005 ft | 568 kts | 131° |
| 2026-05-05 00:42 | 29.24849 | -89.18862 | 37005 ft | 569 kts | 131° |
| 2026-05-05 00:43 | 29.19731 | -89.12009 | 37010 ft | 568 kts | 131° |
| 2026-05-05 00:43 | 29.14600 | -89.05153 | 37012 ft | 568 kts | 131° |
| 2026-05-05 00:44 | 29.09476 | -88.98315 | 37016 ft | 568 kts | 131° |
| 2026-05-05 00:44 | 29.04324 | -88.91452 | 37016 ft | 567 kts | 131° |
| 2026-05-05 00:45 | 28.99202 | -88.84641 | 37026 ft | 567 kts | 131° |
| 2026-05-05 00:45 | 28.94072 | -88.77831 | 37022 ft | 567 kts | 131° |
| 2026-05-05 00:46 | 28.88947 | -88.71038 | 37015 ft | 565 kts | 131° |
| 2026-05-05 00:46 | 28.83824 | -88.64188 | 37011 ft | 567 kts | 131° |
| 2026-05-05 00:47 | 28.78738 | -88.57359 | 37014 ft | 567 kts | 131° |
| 2026-05-05 00:47 | 28.73649 | -88.50541 | 37019 ft | 567 kts | 130° |
| 2026-05-05 00:48 | 28.68537 | -88.43705 | 37017 ft | 566 kts | 131° |
| 2026-05-05 00:48 | 28.63423 | -88.36877 | 37022 ft | 567 kts | 131° |
| 2026-05-05 00:49 | 28.58386 | -88.30166 | 37007 ft | 565 kts | 131° |
| 2026-05-05 00:49 | 28.53277 | -88.23369 | 37008 ft | 567 kts | 131° |
| 2026-05-05 00:50 | 28.48169 | -88.16586 | 37011 ft | 564 kts | 131° |
| 2026-05-05 00:50 | 28.43073 | -88.09829 | 37019 ft | 565 kts | 131° |
| 2026-05-05 00:51 | 28.38507 | -88.02602 | 37018 ft | 563 kts | 116° |
| 2026-05-05 00:51 | 28.35612 | -87.94422 | 37024 ft | 560 kts | 104° |
| 2026-05-05 00:52 | 28.33202 | -87.86045 | 37020 ft | 558 kts | 104° |
| 2026-05-05 00:52 | 28.30797 | -87.77700 | 37023 ft | 558 kts | 104° |
| 2026-05-05 00:53 | 28.28384 | -87.69366 | 37022 ft | 557 kts | 104° |
| 2026-05-05 00:53 | 28.25951 | -87.60984 | 37029 ft | 559 kts | 104° |
| 2026-05-05 00:54 | 28.23508 | -87.52602 | 37033 ft | 558 kts | 104° |
| 2026-05-05 00:54 | 28.21071 | -87.44257 | 37038 ft | 559 kts | 104° |
| 2026-05-05 00:55 | 28.18632 | -87.35934 | 37038 ft | 557 kts | 104° |
| 2026-05-05 00:55 | 28.16246 | -87.27809 | 37015 ft | 556 kts | 105° |
| 2026-05-05 00:56 | 28.13798 | -87.19490 | 37014 ft | 558 kts | 105° |
| 2026-05-05 00:56 | 28.11343 | -87.11175 | 37016 ft | 557 kts | 105° |
| 2026-05-05 00:57 | 28.08886 | -87.02872 | 37013 ft | 558 kts | 105° |
| 2026-05-05 00:57 | 28.06415 | -86.94544 | 37023 ft | 560 kts | 105° |
| 2026-05-05 00:58 | 28.03943 | -86.86233 | 37032 ft | 558 kts | 105° |
| 2026-05-05 00:58 | 28.01460 | -86.77905 | 37043 ft | 558 kts | 105° |
| 2026-05-05 00:59 | 27.99027 | -86.69591 | 37043 ft | 558 kts | 104° |
| 2026-05-05 00:59 | 27.96621 | -86.61252 | 37043 ft | 558 kts | 104° |
| 2026-05-05 01:00 | 27.94217 | -86.52950 | 37045 ft | 558 kts | 104° |
| 2026-05-05 01:00 | 27.91801 | -86.44635 | 37048 ft | 557 kts | 104° |
| 2026-05-05 01:01 | 27.89381 | -86.36329 | 37035 ft | 557 kts | 104° |
| 2026-05-05 01:01 | 27.86955 | -86.28025 | 37015 ft | 558 kts | 105° |
| 2026-05-05 01:02 | 27.84526 | -86.19732 | 37014 ft | 559 kts | 105° |
| 2026-05-05 01:02 | 27.82087 | -86.11431 | 37020 ft | 556 kts | 105° |
| 2026-05-05 01:03 | 27.79660 | -86.03187 | 37019 ft | 557 kts | 105° |
| 2026-05-05 01:03 | 27.77217 | -85.94909 | 37022 ft | 555 kts | 105° |
| 2026-05-05 01:04 | 27.74773 | -85.86649 | 37024 ft | 558 kts | 105° |
| 2026-05-05 01:04 | 27.71100 | -85.74276 | 37025 ft | 556 kts | 105° |
| 2026-05-05 01:05 | 27.68638 | -85.66006 | 37023 ft | 557 kts | 105° |
| 2026-05-05 01:05 | 27.66178 | -85.57764 | 37030 ft | 556 kts | 105° |
| 2026-05-05 01:06 | 27.63710 | -85.49515 | 37028 ft | 556 kts | 105° |
| 2026-05-05 01:06 | 27.61248 | -85.41308 | 37030 ft | 556 kts | 105° |
| 2026-05-05 01:07 | 27.58941 | -85.33020 | 37019 ft | 552 kts | 98° |
| 2026-05-05 01:07 | 27.57445 | -85.24575 | 37011 ft | 550 kts | 96° |
| 2026-05-05 01:08 | 27.55984 | -85.16113 | 37014 ft | 552 kts | 96° |
| 2026-05-05 01:08 | 27.54513 | -85.07656 | 37025 ft | 551 kts | 96° |
| 2026-05-05 01:09 | 27.53039 | -84.99230 | 37028 ft | 553 kts | 97° |
| 2026-05-05 01:09 | 27.51551 | -84.90775 | 37026 ft | 549 kts | 97° |
| 2026-05-05 01:10 | 27.50062 | -84.82342 | 37027 ft | 550 kts | 96° |
| 2026-05-05 01:10 | 27.48571 | -84.73934 | 37033 ft | 551 kts | 96° |
| 2026-05-05 01:11 | 27.47071 | -84.65506 | 37029 ft | 550 kts | 97° |
| 2026-05-05 01:11 | 27.45569 | -84.57104 | 37029 ft | 549 kts | 97° |
| 2026-05-05 01:12 | 27.44059 | -84.48687 | 37030 ft | 549 kts | 96° |
| 2026-05-05 01:12 | 27.42548 | -84.40294 | 37030 ft | 550 kts | 96° |
| 2026-05-05 01:13 | 27.41030 | -84.31892 | 37010 ft | 548 kts | 97° |
| 2026-05-05 01:13 | 27.39659 | -84.24328 | 37010 ft | 551 kts | 97° |
| 2026-05-05 01:14 | 27.38239 | -84.16527 | 37010 ft | 547 kts | 97° |
| 2026-05-05 01:14 | 27.36711 | -84.08152 | 37004 ft | 550 kts | 97° |
| 2026-05-05 01:15 | 27.35171 | -83.99753 | 37002 ft | 548 kts | 97° |
| 2026-05-05 01:15 | 27.33636 | -83.91405 | 37004 ft | 547 kts | 97° |
| 2026-05-05 01:16 | 27.32093 | -83.83037 | 37005 ft | 548 kts | 97° |
| 2026-05-05 01:16 | 27.30549 | -83.74699 | 37003 ft | 547 kts | 98° |
| 2026-05-05 01:17 | 27.28995 | -83.66330 | 37003 ft | 549 kts | 98° |
| 2026-05-05 01:17 | 27.27437 | -83.57977 | 37010 ft | 547 kts | 98° |
| 2026-05-05 01:18 | 27.25872 | -83.49614 | 37015 ft | 548 kts | 98° |
| 2026-05-05 01:18 | 27.24305 | -83.41262 | 37013 ft | 549 kts | 98° |
| 2026-05-05 01:19 | 27.22748 | -83.33000 | 36996 ft | 547 kts | 98° |
| 2026-05-05 01:19 | 27.21206 | -83.24843 | 36989 ft | 547 kts | 98° |
| 2026-05-05 01:20 | 27.19816 | -83.17510 | 36989 ft | 547 kts | 99° |
| 2026-05-05 01:20 | 27.18338 | -83.09738 | 36993 ft | 547 kts | 99° |
| 2026-05-05 01:21 | 27.16746 | -83.01397 | 36997 ft | 547 kts | 99° |
| 2026-05-05 01:21 | 27.15150 | -82.93062 | 36997 ft | 547 kts | 99° |
| 2026-05-05 01:22 | 27.13216 | -82.84809 | 37002 ft | 549 kts | 110° |
| 2026-05-05 01:22 | 27.09658 | -82.77217 | 37007 ft | 551 kts | 122° |
| 2026-05-05 01:23 | 27.05638 | -82.69884 | 37011 ft | 550 kts | 122° |
| 2026-05-05 01:23 | 27.01635 | -82.62607 | 37016 ft | 549 kts | 122° |
| 2026-05-05 01:24 | 26.97632 | -82.55343 | 36706 ft | 544 kts | 122° |
| 2026-05-05 01:24 | 26.95639 | -82.51729 | 35672 ft | 550 kts | 122° |
| 2026-05-05 01:24 | 26.93622 | -82.48086 | 34720 ft | 553 kts | 123° |
| 2026-05-05 01:25 | 26.91326 | -82.44628 | 33897 ft | 552 kts | 131° |
| 2026-05-05 01:25 | 26.88632 | -82.41574 | 33266 ft | 546 kts | 140° |
| 2026-05-05 01:25 | 26.85778 | -82.38778 | 32888 ft | 548 kts | 141° |
| 2026-05-05 01:25 | 26.82839 | -82.35949 | 32396 ft | 558 kts | 141° |
| 2026-05-05 01:26 | 26.80103 | -82.33320 | 31880 ft | 558 kts | 142° |
| 2026-05-05 01:26 | 26.77101 | -82.30438 | 31321 ft | 552 kts | 142° |
| 2026-05-05 01:26 | 26.74246 | -82.27700 | 30800 ft | 548 kts | 142° |
| 2026-05-05 01:26 | 26.71351 | -82.24927 | 30231 ft | 547 kts | 142° |
| 2026-05-05 01:27 | 26.68474 | -82.22174 | 29662 ft | 543 kts | 142° |
| 2026-05-05 01:27 | 26.65625 | -82.19449 | 29112 ft | 537 kts | 142° |
| 2026-05-05 01:27 | 26.62803 | -82.16752 | 28577 ft | 531 kts | 142° |
| 2026-05-05 01:27 | 26.60014 | -82.14089 | 28039 ft | 526 kts | 143° |
| 2026-05-05 01:28 | 26.57256 | -82.11457 | 27498 ft | 520 kts | 142° |
| 2026-05-05 01:28 | 26.54521 | -82.08850 | 26969 ft | 514 kts | 142° |
| 2026-05-05 01:28 | 26.51827 | -82.06268 | 26445 ft | 508 kts | 142° |
| 2026-05-05 01:28 | 26.49214 | -82.03644 | 25941 ft | 502 kts | 141° |
| 2026-05-05 01:29 | 26.46645 | -82.01040 | 25444 ft | 496 kts | 141° |
| 2026-05-05 01:29 | 26.44113 | -81.98479 | 24951 ft | 490 kts | 141° |
| 2026-05-05 01:29 | 26.41607 | -81.95947 | 24463 ft | 483 kts | 141° |
| 2026-05-05 01:29 | 26.39134 | -81.93453 | 23981 ft | 477 kts | 141° |
| 2026-05-05 01:30 | 26.36692 | -81.90993 | 23488 ft | 470 kts | 141° |
| 2026-05-05 01:30 | 26.34298 | -81.88583 | 23029 ft | 458 kts | 141° |
| 2026-05-05 01:30 | 26.31959 | -81.86232 | 22589 ft | 448 kts | 141° |
| 2026-05-05 01:30 | 26.29672 | -81.83934 | 22169 ft | 439 kts | 141° |
| 2026-05-05 01:31 | 26.27416 | -81.81670 | 21741 ft | 434 kts | 142° |
| 2026-05-05 01:31 | 26.25236 | -81.79375 | 21290 ft | 432 kts | 135° |
| 2026-05-05 01:31 | 26.23405 | -81.76733 | 20847 ft | 431 kts | 124° |
| 2026-05-05 01:31 | 26.21972 | -81.73815 | 20383 ft | 429 kts | 118° |
| 2026-05-05 01:32 | 26.20664 | -81.70856 | 19914 ft | 426 kts | 117° |
| 2026-05-05 01:32 | 26.19374 | -81.67911 | 19452 ft | 422 kts | 117° |
| 2026-05-05 01:32 | 26.18099 | -81.64996 | 18984 ft | 419 kts | 117° |
| 2026-05-05 01:32 | 26.16832 | -81.62094 | 18536 ft | 415 kts | 117° |
| 2026-05-05 01:33 | 26.15577 | -81.59221 | 18082 ft | 412 kts | 117° |
| 2026-05-05 01:33 | 26.14331 | -81.56366 | 17630 ft | 408 kts | 117° |
| 2026-05-05 01:33 | 26.13098 | -81.53543 | 17196 ft | 405 kts | 117° |
| 2026-05-05 01:33 | 26.11875 | -81.50743 | 16756 ft | 402 kts | 117° |
| 2026-05-05 01:34 | 26.10661 | -81.47965 | 16320 ft | 398 kts | 117° |
| 2026-05-05 01:34 | 26.09458 | -81.45212 | 15888 ft | 395 kts | 117° |
| 2026-05-05 01:34 | 26.08265 | -81.42483 | 15445 ft | 391 kts | 117° |
| 2026-05-05 01:34 | 26.07083 | -81.39781 | 15011 ft | 388 kts | 117° |
| 2026-05-05 01:35 | 26.05912 | -81.37098 | 14607 ft | 384 kts | 117° |
| 2026-05-05 01:35 | 26.04757 | -81.34445 | 14232 ft | 379 kts | 117° |
| 2026-05-05 01:35 | 26.03618 | -81.31829 | 13846 ft | 375 kts | 117° |
| 2026-05-05 01:35 | 26.02490 | -81.29242 | 13468 ft | 372 kts | 117° |
| 2026-05-05 01:36 | 26.01369 | -81.26670 | 13097 ft | 369 kts | 117° |
| 2026-05-05 01:36 | 26.00254 | -81.24118 | 12735 ft | 366 kts | 117° |
| 2026-05-05 01:36 | 25.99149 | -81.21587 | 12372 ft | 363 kts | 117° |
| 2026-05-05 01:36 | 25.98054 | -81.19081 | 12008 ft | 360 kts | 118° |
| 2026-05-05 01:37 | 25.96964 | -81.16588 | 11639 ft | 357 kts | 118° |
| 2026-05-05 01:37 | 25.95883 | -81.14118 | 11282 ft | 355 kts | 118° |
| 2026-05-05 01:37 | 25.94812 | -81.11670 | 10927 ft | 352 kts | 118° |
| 2026-05-05 01:37 | 25.93749 | -81.09243 | 10671 ft | 348 kts | 118° |
| 2026-05-05 01:38 | 25.92686 | -81.06819 | 10457 ft | 350 kts | 118° |
| 2026-05-05 01:38 | 25.91624 | -81.04397 | 10226 ft | 349 kts | 118° |
| 2026-05-05 01:38 | 25.90602 | -81.01975 | 9974 ft | 342 kts | 115° |
| 2026-05-05 01:38 | 25.89705 | -80.99587 | 9693 ft | 332 kts | 115° |
| 2026-05-05 01:39 | 25.88835 | -80.97261 | 9390 ft | 322 kts | 115° |
| 2026-05-05 01:39 | 25.87986 | -80.95015 | 9161 ft | 310 kts | 115° |
| 2026-05-05 01:39 | 25.87158 | -80.92848 | 8948 ft | 299 kts | 116° |
| 2026-05-05 01:39 | 25.86354 | -80.90751 | 8704 ft | 293 kts | 115° |
| 2026-05-05 01:40 | 25.85557 | -80.88678 | 8424 ft | 291 kts | 115° |
| 2026-05-05 01:40 | 25.84768 | -80.86627 | 8147 ft | 288 kts | 115° |
| 2026-05-05 01:40 | 25.83987 | -80.84596 | 7882 ft | 285 kts | 115° |
| 2026-05-05 01:40 | 25.83210 | -80.82579 | 7568 ft | 284 kts | 115° |
| 2026-05-05 01:41 | 25.82437 | -80.80570 | 7248 ft | 284 kts | 114° |
| 2026-05-05 01:41 | 25.81663 | -80.78560 | 6929 ft | 283 kts | 114° |
| 2026-05-05 01:41 | 25.80893 | -80.76561 | 6626 ft | 281 kts | 114° |
| 2026-05-05 01:41 | 25.80128 | -80.74578 | 6355 ft | 278 kts | 114° |
| 2026-05-05 01:42 | 25.79370 | -80.72612 | 6082 ft | 276 kts | 114° |
| 2026-05-05 01:42 | 25.78619 | -80.70666 | 5812 ft | 274 kts | 114° |
| 2026-05-05 01:42 | 25.77875 | -80.68738 | 5541 ft | 271 kts | 113° |
| 2026-05-05 01:42 | 25.77252 | -80.66782 | 5255 ft | 268 kts | 98° |
| 2026-05-05 01:43 | 25.77170 | -80.64738 | 4993 ft | 264 kts | 85° |
| 2026-05-05 01:43 | 25.77312 | -80.62731 | 4863 ft | 255 kts | 85° |
| 2026-05-05 01:43 | 25.77438 | -80.60814 | 4765 ft | 248 kts | 85° |
| 2026-05-05 01:43 | 25.77544 | -80.58895 | 4345 ft | 251 kts | 86° |
| 2026-05-05 01:44 | 25.77641 | -80.56972 | 4010 ft | 249 kts | 86° |
| 2026-05-05 01:44 | 25.77724 | -80.55081 | 3768 ft | 242 kts | 86° |
| 2026-05-05 01:44 | 25.77787 | -80.53270 | 3568 ft | 229 kts | 87° |
| 2026-05-05 01:44 | 25.77834 | -80.51559 | 3379 ft | 216 kts | 87° |
| 2026-05-05 01:45 | 25.77879 | -80.49933 | 3169 ft | 206 kts | 87° |
| 2026-05-05 01:45 | 25.77930 | -80.48370 | 2925 ft | 199 kts | 86° |
| 2026-05-05 01:45 | 25.77984 | -80.46897 | 2693 ft | 181 kts | 86° |
| 2026-05-05 01:45 | 25.78034 | -80.45541 | 2498 ft | 173 kts | 86° |
| 2026-05-05 01:46 | 25.78086 | -80.44234 | 2284 ft | 166 kts | 86° |
| 2026-05-05 01:46 | 25.78136 | -80.42990 | 2074 ft | 157 kts | 86° |
| 2026-05-05 01:46 | 25.78182 | -80.41839 | 1879 ft | 143 kts | 86° |
| 2026-05-05 01:46 | 25.78226 | -80.40743 | 1702 ft | 141 kts | 85° |
| 2026-05-05 01:47 | 25.78272 | -80.39660 | 1524 ft | 140 kts | 85° |
| 2026-05-05 01:47 | 25.78318 | -80.38569 | 1337 ft | 141 kts | 85° |
| 2026-05-05 01:47 | 25.78364 | -80.37477 | 1148 ft | 143 kts | 85° |
| 2026-05-05 01:47 | 25.78409 | -80.36380 | 968 ft | 142 kts | 85° |
| 2026-05-05 01:48 | 25.78455 | -80.35285 | 778 ft | 143 kts | 85° |
| 2026-05-05 01:48 | 25.78497 | -80.34190 | 584 ft | 143 kts | 86° |
| 2026-05-05 01:48 | 25.78547 | -80.33088 | 394 ft | 143 kts | 86° |
| 2026-05-05 01:48 | 25.78592 | -80.31986 | 207 ft | 143 kts | 86° |
| 2026-05-05 01:49 | 25.78635 | -80.30887 | 31 ft | 142 kts | 86° |
| 2026-05-05 01:49 | 25.78676 | -80.29927 | 20 ft | 104 kts | 87° |
| 2026-05-05 01:49 | 25.78704 | -80.29261 | 20 ft | 69 kts | 88° |
| 2026-05-05 01:49 | 25.78719 | -80.28895 | 20 ft | 31 kts | 87° |
| 2026-05-05 01:50 | 25.78764 | -80.28735 | 20 ft | 20 kts | 58° |
| 2026-05-05 01:50 | 25.78853 | -80.28642 | 20 ft | 16 kts | 37° |
| 2026-05-05 01:50 | 25.78944 | -80.28566 | 20 ft | 15 kts | 36° |
| 2026-05-05 01:50 | 25.79034 | -80.28500 | 20 ft | 15 kts | 34° |
| 2026-05-05 01:51 | 25.79109 | -80.28448 | 20 ft | 9 kts | 14° |
| 2026-05-05 01:51 | 25.79162 | -80.28482 | 20 ft | 9 kts | 302° |
| 2026-05-05 01:51 | 25.79197 | -80.28547 | 20 ft | 9 kts | 301° |
| 2026-05-05 01:51 | 25.79232 | -80.28614 | 20 ft | 10 kts | 300° |
| 2026-05-05 01:52 | 25.79267 | -80.28683 | 20 ft | 10 kts | 300° |
| 2026-05-05 01:52 | 25.79303 | -80.28753 | 20 ft | 10 kts | 298° |
| 2026-05-05 01:52 | 25.79357 | -80.28794 | 20 ft | 10 kts | 359° |
| 2026-05-05 01:52 | 25.79429 | -80.28796 | 20 ft | 10 kts | 358° |
| 2026-05-05 01:53 | 25.79501 | -80.28800 | 20 ft | 10 kts | 357° |
| 2026-05-05 01:53 | 25.79574 | -80.28804 | 20 ft | 10 kts | 357° |
| 2026-05-05 01:53 | 25.79648 | -80.28808 | 20 ft | 10 kts | 358° |
| 2026-05-05 01:53 | 25.79722 | -80.28811 | 20 ft | 10 kts | 358° |
| 2026-05-05 01:54 | 25.79797 | -80.28814 | 20 ft | 10 kts | 358° |
| 2026-05-05 01:54 | 25.79872 | -80.28817 | 20 ft | 10 kts | 358° |
| 2026-05-05 01:54 | 25.79947 | -80.28821 | 20 ft | 10 kts | 357° |
| 2026-05-05 01:54 | 25.80008 | -80.28799 | 20 ft | 9 kts | 71° |
| 2026-05-05 01:55 | 25.80018 | -80.28724 | 20 ft | 9 kts | 86° |
| 2026-05-05 01:55 | 25.80022 | -80.28648 | 20 ft | 9 kts | 87° |
| 2026-05-05 01:55 | 25.80026 | -80.28571 | 20 ft | 9 kts | 86° |
| 2026-05-05 01:55 | 25.80030 | -80.28495 | 20 ft | 10 kts | 86° |
| 2026-05-05 01:56 | 25.80033 | -80.28417 | 20 ft | 10 kts | 89° |
| 2026-05-05 01:56 | 25.80035 | -80.28340 | 20 ft | 10 kts | 88° |
| 2026-05-05 01:56 | 25.80037 | -80.28262 | 20 ft | 10 kts | 88° |
| 2026-05-05 01:56 | 25.80040 | -80.28184 | 20 ft | 10 kts | 88° |
| 2026-05-05 01:57 | 25.80044 | -80.28106 | 20 ft | 10 kts | 87° |
| 2026-05-05 01:57 | 25.80047 | -80.28027 | 20 ft | 10 kts | 87° |
| 2026-05-05 01:57 | 25.80051 | -80.27948 | 20 ft | 10 kts | 88° |
| 2026-05-05 01:57 | 25.80026 | -80.27902 | 20 ft | 7 kts | 154° |
| 2026-05-05 01:58 | 25.79975 | -80.27889 | 20 ft | 7 kts | 175° |
| 2026-05-05 01:58 | 25.79919 | -80.27891 | 20 ft | 8 kts | 185° |
| 2026-05-05 01:58 | 25.79861 | -80.27895 | 20 ft | 8 kts | 179° |
| 2026-05-05 01:58 | 25.79830 | -80.27894 | 20 ft | 0 kts | 178° |
| 2026-05-05 01:59 | 25.79816 | -80.27893 | 20 ft | 3 kts | 178° |
| 2026-05-05 01:59 | 25.79791 | -80.27892 | 20 ft | 0 kts | 178° |
| 2026-05-05 01:59 | 25.79789 | -80.27892 | 20 ft | 0 kts | 178° |
| 2026-05-05 01:59 | 25.79790 | -80.27892 | 20 ft | 0 kts | 178° |
| 2026-05-05 02:02 | 25.79789 | -80.27892 | 20 ft | 0 kts | 178° |
| 2026-05-05 02:02 | 25.79790 | -80.27892 | 20 ft | 0 kts | 178° |
| 2026-05-05 02:14 | 25.79789 | -80.27892 | 20 ft | 0 kts | 178° |